Time;durP1;ratioP1;P1;durP2;ratioP2;P2;SDS_P1;SDS_P2;PMS_P1;PMS_P2;Temp;Humidity;BMP_temperature;BMP_pressure;BME280_temperature;BME280_humidity;BME280_pressure;Samples;Min_cycle;Max_cycle;Signal;HPM_P1;HPM_P2
2022/02/09 00:00:19;;;;;;;48.80;44.07;;;;;;;;;;4973522;28;20456;-73
2022/02/09 00:03:03;;;;;;;17.43;11.00;;;;;;;;;;4972654;28;20897;-74
2022/02/09 00:05:44;;;;;;;15.13;10.07;;;;;;;;;;4970643;28;20456;-73
2022/02/09 00:08:12;;;;;;;15.47;9.27;;;;;;;;;;4969486;28;20461;-73
2022/02/09 00:10:43;;;;;;;8.17;6.03;;;;;;;;;;4980256;28;20473;-73
2022/02/09 00:13:37;;;;;;;18.77;8.90;;;;;;;;;;4980908;28;20457;-74
2022/02/09 00:16:20;;;;;;;14.90;10.63;;;;;;;;;;4967129;28;20532;-73
2022/02/09 00:18:54;;;;;;;13.33;9.20;;;;;;;;;;4974889;28;20457;-73
2022/02/09 00:21:50;;;;;;;12.07;8.30;;;;;;;;;;4973698;28;20506;-74
2022/02/09 00:32:57;;;;;;;5.67;4.40;;;;;;;;;;4967394;28;20526;-74
2022/02/09 00:44:18;;;;;;;9.23;6.93;;;;;;;;;;4953464;28;20469;-74
2022/02/09 01:12:36;;;;;;;8.20;6.00;;;;;;;;;;4978860;28;20436;-74
2022/02/09 01:40:05;;;;;;;12.97;9.57;;;;;;;;;;4974482;28;20500;-74
2022/02/09 01:51:16;;;;;;;11.67;7.60;;;;;;;;;;4978148;28;20423;-73
2022/02/09 01:56:32;;;;;;;10.23;7.87;;;;;;;;;;4968623;28;20444;-73
2022/02/09 01:59:03;;;;;;;11.60;8.40;;;;;;;;;;4971341;28;20712;-73
2022/02/09 02:01:31;;;;;;;13.00;8.70;;;;;;;;;;4978302;28;20657;-74
2022/02/09 02:03:59;;;;;;;14.20;9.37;;;;;;;;;;4979388;28;20456;-72
2022/02/09 02:06:28;;;;;;;10.07;6.23;;;;;;;;;;4959115;29;20859;-74
2022/02/09 02:08:57;;;;;;;11.40;7.93;;;;;;;;;;4962271;28;20458;-74
2022/02/09 02:11:29;;;;;;;12.43;9.00;;;;;;;;;;4997762;28;20456;-74
2022/02/09 02:14:17;;;;;;;16.90;10.20;;;;;;;;;;4990733;28;20463;-74
2022/02/09 02:16:48;;;;;;;11.90;8.93;;;;;;;;;;4978157;28;20465;-74
2022/02/09 02:19:29;;;;;;;13.03;9.00;;;;;;;;;;4978592;28;20449;-73
2022/02/09 02:22:08;;;;;;;14.80;10.37;;;;;;;;;;4970955;28;20942;-75
2022/02/09 02:25:05;;;;;;;15.60;9.90;;;;;;;;;;4959072;29;20458;-74
2022/02/09 02:28:03;;;;;;;16.90;9.07;;;;;;;;;;4958286;29;20536;-75
2022/02/09 02:33:42;;;;;;;18.80;11.90;;;;;;;;;;4977574;28;20543;-73
2022/02/09 02:36:37;;;;;;;18.50;12.90;;;;;;;;;;4977736;28;20476;-74
2022/02/09 02:39:40;;;;;;;21.30;10.43;;;;;;;;;;4977434;28;20441;-74
2022/02/09 03:12:59;;;;;;;17.13;9.73;;;;;;;;;;5091065;28;20701;-74
2022/02/09 03:15:34;;;;;;;23.17;13.00;;;;;;;;;;5125516;27;20442;-73
2022/02/09 03:21:17;;;;;;;20.13;10.00;;;;;;;;;;5108574;27;20482;-73
2022/02/09 03:23:49;;;;;;;19.00;11.20;;;;;;;;;;5133330;27;20481;-73
2022/02/09 03:26:47;;;;;;;13.20;7.83;;;;;;;;;;5123470;28;20466;-74
2022/02/09 03:46:28;;;;;;;18.33;10.40;;;;;;;;;;5049464;28;20449;-73
2022/02/09 03:54:34;;;;;;;22.63;12.10;;;;;;;;;;5108591;28;20450;-72
2022/02/09 03:57:04;;;;;;;17.47;10.70;;;;;;;;;;5112658;28;20458;-74
2022/02/09 03:59:33;;;;;;;14.43;8.57;;;;;;;;;;5112298;28;20483;-73
2022/02/09 04:02:00;;;;;;;21.03;9.73;;;;;;;;;;5111814;28;20451;-74
2022/02/09 04:04:31;;;;;;;15.90;10.43;;;;;;;;;;5112743;28;20454;-73
2022/02/09 04:06:58;;;;;;;21.00;11.80;;;;;;;;;;5112249;28;20443;-74
2022/02/09 04:09:29;;;;;;;16.53;9.33;;;;;;;;;;5111694;28;20454;-73
2022/02/09 04:12:05;;;;;;;18.07;10.77;;;;;;;;;;5104040;28;20722;-73
2022/02/09 04:14:42;;;;;;;12.33;9.20;;;;;;;;;;5098270;28;20501;-73
2022/02/09 04:17:19;;;;;;;20.13;9.00;;;;;;;;;;5098064;28;20588;-74
2022/02/09 04:20:08;;;;;;;17.63;9.97;;;;;;;;;;5100278;28;20513;-74
2022/02/09 04:36:30;;;;;;;14.50;9.03;;;;;;;;;;5115670;28;20885;-73
2022/02/09 04:39:04;;;;;;;11.80;7.30;;;;;;;;;;5118475;28;20466;-74
2022/02/09 04:44:42;;;;;;;19.57;10.40;;;;;;;;;;5081135;28;20512;-74
2022/02/09 04:47:26;;;;;;;19.10;11.20;;;;;;;;;;5115310;28;20438;-74
2022/02/09 04:50:05;;;;;;;18.40;8.20;;;;;;;;;;5117356;28;20473;-74
2022/02/09 04:52:57;;;;;;;17.83;8.83;;;;;;;;;;5116641;28;20702;-74
2022/02/09 04:58:20;;;;;;;16.37;10.17;;;;;;;;;;5113135;28;20795;-73
2022/02/09 05:00:56;;;;;;;18.43;8.50;;;;;;;;;;5116845;28;20746;-74
2022/02/09 05:23:03;;;;;;;18.63;10.03;;;;;;;;;;5111097;28;20427;-73
2022/02/09 05:25:43;;;;;;;15.50;10.27;;;;;;;;;;5114939;28;20446;-73
2022/02/09 05:28:14;;;;;;;16.33;8.93;;;;;;;;;;5116335;28;20503;-72
2022/02/09 05:30:41;;;;;;;18.03;10.93;;;;;;;;;;5116602;28;20501;-74
2022/02/09 05:33:09;;;;;;;15.60;10.07;;;;;;;;;;5096354;28;20448;-73
2022/02/09 05:35:36;;;;;;;44.53;24.53;;;;;;;;;;5096425;28;20475;-73
2022/02/09 05:38:03;;;;;;;15.90;9.33;;;;;;;;;;5096944;28;20463;-73
2022/02/09 05:40:31;;;;;;;14.47;9.63;;;;;;;;;;5096418;28;20482;-73
2022/02/09 05:43:00;;;;;;;21.60;12.00;;;;;;;;;;5096637;28;20459;-75
2022/02/09 05:45:38;;;;;;;19.00;10.80;;;;;;;;;;5112260;28;20443;-72
2022/02/09 05:50:59;;;;;;;14.77;8.97;;;;;;;;;;5116551;28;20867;-73
2022/02/09 05:53:37;;;;;;;17.10;10.40;;;;;;;;;;5114647;28;20494;-74
2022/02/09 05:56:08;;;;;;;14.80;10.20;;;;;;;;;;5115274;28;20529;-73
2022/02/09 05:58:45;;;;;;;22.73;11.03;;;;;;;;;;5115368;28;20455;-73
2022/02/09 06:01:16;;;;;;;16.23;10.63;;;;;;;;;;5115617;28;20490;-73
2022/02/09 06:03:43;;;;;;;9.77;6.17;;;;;;;;;;5096460;28;20847;-73
2022/02/09 06:06:31;;;;;;;17.70;10.00;;;;;;;;;;5095792;28;20440;-74
2022/02/09 06:09:07;;;;;;;12.53;9.00;;;;;;;;;;5096288;28;20466;-73
2022/02/09 06:11:41;;;;;;;17.30;10.10;;;;;;;;;;5095449;28;21062;-73
2022/02/09 06:14:24;;;;;;;21.07;12.67;;;;;;;;;;5095033;28;20464;-73
2022/02/09 06:19:44;;;;;;;14.57;9.03;;;;;;;;;;5094754;28;20543;-73
2022/02/09 06:22:15;;;;;;;16.80;10.30;;;;;;;;;;5097648;28;21049;-74
2022/02/09 06:24:43;;;;;;;14.17;9.63;;;;;;;;;;5114156;28;20925;-74
2022/02/09 06:27:11;;;;;;;13.87;9.70;;;;;;;;;;5114093;28;20451;-74
2022/02/09 06:29:43;;;;;;;15.93;9.47;;;;;;;;;;5114042;28;20465;-75
2022/02/09 06:32:10;;;;;;;13.73;7.83;;;;;;;;;;5114581;28;20451;-74
2022/02/09 06:34:48;;;;;;;15.10;9.60;;;;;;;;;;5107464;28;20527;-73
2022/02/09 06:37:23;;;;;;;17.00;10.90;;;;;;;;;;5094672;28;20528;-74
2022/02/09 06:39:56;;;;;;;11.47;8.13;;;;;;;;;;5095859;28;20489;-74
2022/02/09 06:42:24;;;;;;;20.10;12.60;;;;;;;;;;5107262;28;20876;-72
2022/02/09 06:44:51;;;;;;;13.10;9.27;;;;;;;;;;5092750;28;20452;-73
2022/02/09 06:50:03;;;;;;;15.33;11.33;;;;;;;;;;5104555;28;20450;-74
2022/02/09 06:52:46;;;;;;;22.77;12.83;;;;;;;;;;5111830;28;20466;-72
2022/02/09 06:58:05;;;;;;;13.00;8.43;;;;;;;;;;5091834;28;20467;-74
2022/02/09 07:00:34;;;;;;;11.70;8.67;;;;;;;;;;5092653;28;20479;-74
2022/02/09 07:03:01;;;;;;;20.47;10.10;;;;;;;;;;5092406;28;20440;-73
2022/02/09 07:05:28;;;;;;;18.47;9.13;;;;;;;;;;5093015;28;20455;-74
2022/02/09 07:07:56;;;;;;;7.53;4.83;;;;;;;;;;5108476;28;21144;-74
2022/02/09 07:10:48;;;;;;;16.90;9.67;;;;;;;;;;5109573;28;20528;-73
2022/02/09 07:13:15;;;;;;;12.17;9.10;;;;;;;;;;5111933;28;20443;-73
2022/02/09 07:15:49;;;;;;;17.40;7.33;;;;;;;;;;5112894;28;20457;-74
2022/02/09 07:18:19;;;;;;;11.43;7.60;;;;;;;;;;5106525;28;20442;-75
2022/02/09 07:20:55;;;;;;;11.27;7.13;;;;;;;;;;5094774;28;20546;-73
2022/02/09 07:23:36;;;;;;;12.93;9.43;;;;;;;;;;5104476;28;20478;-74
2022/02/09 07:26:08;;;;;;;13.73;8.30;;;;;;;;;;5097952;28;20498;-74
2022/02/09 07:28:38;;;;;;;9.97;8.30;;;;;;;;;;5101083;28;20747;-74
2022/02/09 07:31:09;;;;;;;14.80;9.40;;;;;;;;;;5111245;28;20459;-75
2022/02/09 07:34:13;;;;;;;13.90;9.93;;;;;;;;;;5109354;28;20583;-74
2022/02/09 07:36:50;;;;;;;11.30;7.43;;;;;;;;;;5097773;28;20443;-74
2022/02/09 07:39:22;;;;;;;15.73;8.13;;;;;;;;;;5107334;28;20457;-75
2022/02/09 07:42:11;;;;;;;13.30;8.80;;;;;;;;;;5112499;28;20554;-75
2022/02/09 07:44:58;;;;;;;11.20;7.50;;;;;;;;;;5113897;28;21074;-74
2022/02/09 07:47:59;;;;;;;9.70;7.33;;;;;;;;;;5114603;28;20454;-74
2022/02/09 07:50:37;;;;;;;12.00;8.40;;;;;;;;;;5107192;28;20463;-74
2022/02/09 07:53:11;;;;;;;11.43;6.57;;;;;;;;;;5114610;28;20458;-76
2022/02/09 07:55:46;;;;;;;11.23;8.13;;;;;;;;;;5099141;28;20459;-75
2022/02/09 07:58:20;;;;;;;13.03;9.10;;;;;;;;;;5112292;28;20503;-75
2022/02/09 08:00:52;;;;;;;10.77;6.80;;;;;;;;;;5113505;28;20531;-75
2022/02/09 08:03:32;;;;;;;12.13;7.17;;;;;;;;;;5112582;28;20856;-76
2022/02/09 08:06:01;;;;;;;10.40;6.87;;;;;;;;;;5097207;28;20451;-75
2022/02/09 08:08:32;;;;;;;12.17;7.77;;;;;;;;;;5105021;28;20450;-76
2022/02/09 08:11:23;;;;;;;9.30;6.30;;;;;;;;;;5095603;28;20459;-75
2022/02/09 08:28:43;;;;;;;4.30;3.10;;;;;;;;;;5113920;28;20733;-74
2022/02/09 08:31:48;;;;;;;10.33;6.20;;;;;;;;;;5096196;28;20546;-75
2022/02/09 08:34:25;;;;;;;13.57;7.73;;;;;;;;;;5098072;28;20527;-74
2022/02/09 08:36:56;;;;;;;10.60;7.60;;;;;;;;;;5096708;28;20713;-74
2022/02/09 08:39:26;;;;;;;10.60;7.70;;;;;;;;;;5114478;28;20455;-74
2022/02/09 08:41:56;;;;;;;15.90;8.30;;;;;;;;;;5116354;28;20470;-75
2022/02/09 08:44:24;;;;;;;12.40;7.17;;;;;;;;;;5115123;28;20462;-74
2022/02/09 08:46:52;;;;;;;10.30;6.17;;;;;;;;;;5116416;28;20446;-74
2022/02/09 08:49:19;;;;;;;9.67;6.87;;;;;;;;;;5098633;28;20467;-74
2022/02/09 08:51:57;;;;;;;12.23;7.50;;;;;;;;;;5113771;28;20447;-74
2022/02/09 08:54:25;;;;;;;9.37;6.93;;;;;;;;;;5115905;28;20462;-74
2022/02/09 08:56:54;;;;;;;14.43;8.53;;;;;;;;;;5114758;28;20474;-74
2022/02/09 08:59:27;;;;;;;10.00;7.00;;;;;;;;;;5097751;28;20887;-73
2022/02/09 09:02:00;;;;;;;7.50;5.07;;;;;;;;;;5101794;28;20519;-74
2022/02/09 09:04:32;;;;;;;9.77;6.67;;;;;;;;;;5112516;28;20458;-73
2022/02/09 09:07:06;;;;;;;7.30;5.10;;;;;;;;;;5110431;28;20467;-74
2022/02/09 09:09:54;;;;;;;8.67;5.60;;;;;;;;;;5117362;28;20461;-74
2022/02/09 09:16:54;;;;;;;7.73;4.93;;;;;;;;;;5101618;28;20813;-75
2022/02/09 09:19:22;;;;;;;8.10;5.43;;;;;;;;;;5114588;28;20447;-75
2022/02/09 10:02:53;;;;;;;6.10;4.10;;;;;;;;;;5095606;28;20450;-75
2022/02/09 10:05:50;;;;;;;9.67;6.27;;;;;;;;;;5098241;28;20874;-74
2022/02/09 10:32:18;;;;;;;5.40;4.33;;;;;;;;;;5071298;28;20529;-74
2022/02/09 10:34:44;;;;;;;8.03;5.43;;;;;;;;;;5093087;28;20450;-74
2022/02/09 10:39:59;;;;;;;7.70;5.80;;;;;;;;;;5093254;28;20500;-74
2022/02/09 10:42:37;;;;;;;8.23;5.23;;;;;;;;;;5099544;28;20858;-74
2022/02/09 10:45:31;;;;;;;6.67;4.70;;;;;;;;;;5107701;28;20550;-76
2022/02/09 10:47:59;;;;;;;9.53;6.67;;;;;;;;;;5107813;28;20451;-75
2022/02/09 10:50:42;;;;;;;7.33;4.90;;;;;;;;;;5113896;28;20501;-74
2022/02/09 10:53:25;;;;;;;6.27;4.43;;;;;;;;;;5106600;28;20808;-74
2022/02/09 10:58:54;;;;;;;9.33;6.67;;;;;;;;;;5105275;28;20547;-74
2022/02/09 11:01:38;;;;;;;10.40;6.20;;;;;;;;;;5103342;28;20864;-75
2022/02/09 11:04:43;;;;;;;11.73;5.90;;;;;;;;;;5107896;28;20454;-75
2022/02/09 11:07:15;;;;;;;9.93;6.87;;;;;;;;;;5048709;28;20806;-74
2022/02/09 11:09:44;;;;;;;7.53;5.30;;;;;;;;;;5108912;28;20435;-74
2022/02/09 11:12:17;;;;;;;9.30;5.97;;;;;;;;;;5109401;28;20466;-74
2022/02/09 11:14:54;;;;;;;10.13;7.33;;;;;;;;;;5111024;28;20457;-74
2022/02/09 11:21:28;;;;;;;7.10;3.60;;;;;;;;;;5083026;28;20494;-73
2022/02/09 11:23:59;;;;;;;8.60;6.10;;;;;;;;;;5113926;28;20459;-74
2022/02/09 11:26:40;;;;;;;6.13;3.90;;;;;;;;;;5122854;28;20458;-74
2022/02/09 11:29:37;;;;;;;5.77;4.17;;;;;;;;;;5098521;28;20516;-76
2022/02/09 11:32:40;;;;;;;10.20;6.20;;;;;;;;;;5116349;28;20716;-74
2022/02/09 11:38:52;;;;;;;6.23;4.57;;;;;;;;;;5091205;28;20745;-75
2022/02/09 11:41:23;;;;;;;8.20;5.43;;;;;;;;;;5098267;28;20509;-75
2022/02/09 11:44:06;;;;;;;10.20;7.30;;;;;;;;;;5105676;28;20530;-74
2022/02/09 11:46:45;;;;;;;3.40;2.73;;;;;;;;;;5118701;28;20464;-74
2022/02/09 12:10:46;;;;;;;9.27;6.07;;;;;;;;;;5111432;28;20599;-74
2022/02/09 12:13:42;;;;;;;8.80;5.33;;;;;;;;;;5106932;28;21025;-74
2022/02/09 12:16:41;;;;;;;7.03;4.73;;;;;;;;;;5096371;28;20460;-74
2022/02/09 12:19:25;;;;;;;6.23;4.70;;;;;;;;;;5101457;28;20462;-74
2022/02/09 12:22:10;;;;;;;5.77;3.27;;;;;;;;;;5108675;28;20488;-74
2022/02/09 12:27:26;;;;;;;8.87;5.17;;;;;;;;;;5110581;28;20458;-74
2022/02/09 12:29:59;;;;;;;5.23;4.20;;;;;;;;;;5101489;28;20454;-74
2022/02/09 12:35:11;;;;;;;14.23;8.07;;;;;;;;;;5110551;28;20870;-72
2022/02/09 12:37:38;;;;;;;5.93;4.00;;;;;;;;;;5102154;28;20498;-72
2022/02/09 12:40:08;;;;;;;7.30;5.10;;;;;;;;;;5104834;28;20497;-73
2022/02/09 12:42:47;;;;;;;7.93;5.33;;;;;;;;;;5108775;28;20538;-74
2022/02/09 12:45:22;;;;;;;7.23;4.90;;;;;;;;;;5106365;28;20494;-73
2022/02/09 12:48:06;;;;;;;9.07;5.63;;;;;;;;;;5109933;27;20465;-72
2022/02/09 12:50:37;;;;;;;5.00;3.97;;;;;;;;;;5100457;28;20479;-73
2022/02/09 12:53:18;;;;;;;;;;;;;;;;;;;;;
2022/02/09 12:55:46;;;;;;;8.47;5.07;;;;;;;;;;5095797;28;20467;-75
2022/02/09 12:58:44;;;;;;;7.40;5.40;;;;;;;;;;5099816;28;20538;-74
2022/02/09 13:01:13;;;;;;;4.70;3.43;;;;;;;;;;5113536;28;21036;-74
2022/02/09 13:04:09;;;;;;;8.50;4.47;;;;;;;;;;5108719;28;20542;-74
2022/02/09 13:09:52;;;;;;;11.37;7.70;;;;;;;;;;5107235;28;20502;-74
2022/02/09 13:12:30;;;;;;;9.73;5.83;;;;;;;;;;5098374;28;20475;-74
2022/02/09 13:15:14;;;;;;;5.20;3.67;;;;;;;;;;5102551;28;20451;-75
2022/02/09 13:18:14;;;;;;;5.50;4.20;;;;;;;;;;5100822;28;20447;-75
2022/02/09 14:11:11;;;;;;;7.57;4.80;;;;;;;;;;5036318;28;20919;-74
2022/02/09 14:14:05;;;;;;;14.03;6.30;;;;;;;;;;5070081;28;20467;-73
2022/02/09 14:54:19;;;;;;;13.50;8.60;;;;;;;;;;5072896;28;20431;-74
2022/02/09 14:57:09;;;;;;;11.10;5.27;;;;;;;;;;5085969;28;20868;-73
2022/02/09 15:00:02;;;;;;;;;;;;;;;;;;;;;
2022/02/09 15:02:55;;;;;;;6.90;5.10;;;;;;;;;;5112846;28;20850;-73
2022/02/09 15:05:53;;;;;;;7.53;6.20;;;;;;;;;;5113634;28;20450;-72
2022/02/09 15:08:43;;;;;;;8.50;5.37;;;;;;;;;;5107845;28;20447;-73
2022/02/09 15:11:24;;;;;;;7.00;4.80;;;;;;;;;;5107991;28;20462;-72
2022/02/09 15:14:06;;;;;;;8.77;6.20;;;;;;;;;;5104230;28;20583;-77
2022/02/09 15:16:39;;;;;;;11.10;6.00;;;;;;;;;;5109601;28;20903;-72
2022/02/09 15:19:21;;;;;;;10.00;7.00;;;;;;;;;;5093842;28;20463;-72
2022/02/09 15:24:51;;;;;;;11.87;7.37;;;;;;;;;;5085794;28;20471;-73
2022/02/09 15:27:20;;;;;;;10.83;7.73;;;;;;;;;;5111749;28;20863;-72
2022/02/09 15:29:52;;;;;;;10.37;7.63;;;;;;;;;;5096222;28;20454;-72
2022/02/09 15:32:27;;;;;;;5.53;4.40;;;;;;;;;;5111407;28;20459;-72
2022/02/09 15:35:05;;;;;;;12.27;9.23;;;;;;;;;;5114426;28;20492;-72
2022/02/09 15:37:48;;;;;;;8.50;6.83;;;;;;;;;;5097225;28;20591;-74
2022/02/09 15:40:31;;;;;;;11.50;7.67;;;;;;;;;;5094506;28;20459;-72
2022/02/09 15:57:29;;;;;;;10.47;5.83;;;;;;;;;;5108751;28;20930;-72
2022/02/09 16:05:45;;;;;;;7.37;5.63;;;;;;;;;;5114139;28;20465;-72
2022/02/09 16:08:41;;;;;;;6.80;5.57;;;;;;;;;;5113537;28;20465;-72
2022/02/09 16:11:33;;;;;;;11.40;7.93;;;;;;;;;;5112124;28;20478;-72
2022/02/09 16:17:33;;;;;;;6.83;4.47;;;;;;;;;;5059488;28;20437;-73
2022/02/09 16:20:56;;;;;;;7.43;5.33;;;;;;;;;;5102417;28;20538;-73
2022/02/09 16:23:12;;;;;;;8.00;5.67;;;;;;;;;;5096212;28;20461;-73
2022/02/09 16:26:08;;;;;;;9.13;6.43;;;;;;;;;;5096849;28;20735;-73
2022/02/09 16:34:46;;;;;;;7.00;5.07;;;;;;;;;;5116646;28;20504;-72
2022/02/09 16:46:14;;;;;;;8.63;5.63;;;;;;;;;;5079805;28;20719;-73
2022/02/09 16:48:50;;;;;;;7.57;5.20;;;;;;;;;;5117401;28;20854;-72
2022/02/09 16:51:22;;;;;;;10.13;7.57;;;;;;;;;;5118286;28;20533;-72
2022/02/09 16:54:06;;;;;;;12.67;6.50;;;;;;;;;;5117397;28;20443;-72
2022/02/09 17:19:33;;;;;;;10.30;8.03;;;;;;;;;;5076140;28;20446;-74
2022/02/09 17:22:08;;;;;;;13.10;9.37;;;;;;;;;;5114461;28;20618;-73
2022/02/09 17:24:35;;;;;;;11.37;7.50;;;;;;;;;;5095654;28;20743;-73
2022/02/09 17:27:05;;;;;;;12.83;8.37;;;;;;;;;;5101939;28;20467;-73
2022/02/09 17:29:48;;;;;;;8.70;7.27;;;;;;;;;;5097541;28;20906;-73
2022/02/09 17:32:34;;;;;;;12.13;7.83;;;;;;;;;;5111785;28;20455;-73
2022/02/09 17:35:09;;;;;;;12.27;9.37;;;;;;;;;;5107888;28;20942;-72
2022/02/09 17:55:20;;;;;;;15.60;9.27;;;;;;;;;;5094983;28;20434;-73
2022/02/09 17:57:35;;;;;;;11.50;7.77;;;;;;;;;;5094864;28;20455;-73
2022/02/09 18:00:14;;;;;;;10.53;7.33;;;;;;;;;;5095992;28;20455;-73
2022/02/09 18:02:44;;;;;;;14.13;9.10;;;;;;;;;;5095577;28;20859;-74
2022/02/09 18:05:37;;;;;;;13.47;8.57;;;;;;;;;;5095910;28;20482;-74
2022/02/09 18:08:10;;;;;;;9.00;6.87;;;;;;;;;;5095634;28;20451;-74
2022/02/09 18:10:51;;;;;;;10.57;7.53;;;;;;;;;;5103429;28;20948;-74
2022/02/09 18:13:42;;;;;;;11.37;7.43;;;;;;;;;;5107594;28;20867;-73
2022/02/09 18:30:08;;;;;;;4.70;3.63;;;;;;;;;;5080347;28;20478;-73
2022/02/09 18:38:36;;;;;;;8.90;4.50;;;;;;;;;;5102457;28;20473;-73
2022/02/09 18:44:04;;;;;;;10.20;4.53;;;;;;;;;;5099359;28;20435;-73
2022/02/09 18:46:39;;;;;;;8.23;4.57;;;;;;;;;;5106129;28;20482;-73
2022/02/09 19:00:53;;;;;;;9.97;4.73;;;;;;;;;;5117692;28;20430;-73
2022/02/09 19:03:30;;;;;;;6.03;4.27;;;;;;;;;;5096023;28;20478;-73
2022/02/09 19:06:21;;;;;;;5.30;3.17;;;;;;;;;;5123522;28;20852;-73
2022/02/09 19:14:32;;;;;;;8.80;6.13;;;;;;;;;;5111846;28;20481;-73
2022/02/09 19:17:06;;;;;;;7.97;4.23;;;;;;;;;;5103184;28;20563;-73
2022/02/09 19:30:55;;;;;;;3.77;2.53;;;;;;;;;;5108577;28;20739;-73
2022/02/09 19:47:58;;;;;;;11.30;6.40;;;;;;;;;;5116127;28;20429;-73
2022/02/09 19:53:37;;;;;;;5.90;3.67;;;;;;;;;;5113834;28;20446;-73
2022/02/09 19:56:09;;;;;;;7.30;3.80;;;;;;;;;;5115671;28;20462;-75
2022/02/09 19:58:41;;;;;;;6.33;4.13;;;;;;;;;;5120594;27;20445;-73
2022/02/09 20:01:18;;;;;;;6.03;3.53;;;;;;;;;;5119143;28;20593;-73
2022/02/09 20:03:48;;;;;;;6.87;4.30;;;;;;;;;;5120275;27;20445;-73
2022/02/09 20:06:19;;;;;;;7.80;3.43;;;;;;;;;;5123089;28;20446;-73
2022/02/09 20:09:04;;;;;;;9.20;4.00;;;;;;;;;;5118952;28;20451;-73
2022/02/09 20:11:35;;;;;;;7.33;4.07;;;;;;;;;;5120203;28;20748;-73
2022/02/09 20:14:03;;;;;;;12.33;4.60;;;;;;;;;;5117954;28;20462;-73
2022/02/09 20:16:37;;;;;;;7.60;5.20;;;;;;;;;;5118767;28;20438;-73
2022/02/09 20:19:07;;;;;;;14.60;3.70;;;;;;;;;;5119677;28;20512;-73
2022/02/09 20:21:41;;;;;;;7.37;4.27;;;;;;;;;;5115334;28;20479;-73
2022/02/09 20:24:14;;;;;;;5.97;3.80;;;;;;;;;;5117615;28;20596;-73
2022/02/09 20:26:45;;;;;;;7.00;3.80;;;;;;;;;;5117129;28;20503;-73
2022/02/09 20:29:17;;;;;;;6.70;3.93;;;;;;;;;;5114793;28;21139;-73
2022/02/09 20:31:59;;;;;;;8.43;5.10;;;;;;;;;;5118952;28;20447;-73
2022/02/09 20:34:46;;;;;;;13.97;6.80;;;;;;;;;;5118158;28;20457;-72
2022/02/09 20:37:17;;;;;;;8.63;5.03;;;;;;;;;;5113497;28;20763;-73
2022/02/09 20:39:55;;;;;;;21.83;11.00;;;;;;;;;;5104575;28;20463;-73
2022/02/09 20:42:26;;;;;;;14.13;7.00;;;;;;;;;;5098759;28;20517;-72
2022/02/09 20:44:58;;;;;;;18.77;8.77;;;;;;;;;;5107179;28;20554;-73
2022/02/09 20:47:32;;;;;;;9.60;6.27;;;;;;;;;;5109594;28;20463;-72
2022/02/09 20:50:02;;;;;;;7.70;5.00;;;;;;;;;;5118646;28;20450;-73
2022/02/09 20:52:32;;;;;;;8.10;5.20;;;;;;;;;;5109296;28;20444;-72
2022/02/09 20:55:00;;;;;;;11.20;7.30;;;;;;;;;;5097285;28;20439;-74
2022/02/09 20:57:29;;;;;;;8.77;5.13;;;;;;;;;;5111259;28;20938;-73
2022/02/09 21:00:05;;;;;;;9.77;6.10;;;;;;;;;;5097632;28;20495;-73
2022/02/09 21:02:48;;;;;;;11.80;4.93;;;;;;;;;;5106357;28;20793;-72
2022/02/09 21:05:45;;;;;;;8.20;5.10;;;;;;;;;;5117181;28;20534;-73
2022/02/09 21:08:34;;;;;;;9.60;5.33;;;;;;;;;;5103735;28;20534;-73
2022/02/09 21:11:10;;;;;;;14.27;6.13;;;;;;;;;;5096701;28;20509;-73
2022/02/09 21:13:45;;;;;;;11.93;6.10;;;;;;;;;;5110208;28;20450;-73
2022/02/09 21:16:29;;;;;;;10.83;6.13;;;;;;;;;;5117056;28;20503;-73
2022/02/09 21:19:18;;;;;;;9.60;5.70;;;;;;;;;;5116578;28;20451;-73
2022/02/09 21:24:58;;;;;;;10.90;6.10;;;;;;;;;;5114764;28;20857;-72
2022/02/09 21:53:31;;;;;;;10.00;5.13;;;;;;;;;;5106290;28;20829;-72
2022/02/09 21:56:20;;;;;;;10.73;5.80;;;;;;;;;;5104451;28;20447;-73
2022/02/09 21:59:13;;;;;;;12.23;6.97;;;;;;;;;;5097559;28;20893;-71
2022/02/09 22:06:04;;;;;;;15.20;6.67;;;;;;;;;;5110917;28;20482;-72
2022/02/09 22:49:48;;;;;;;11.97;5.50;;;;;;;;;;5106553;28;20441;-72
2022/02/09 22:55:05;;;;;;;15.13;8.27;;;;;;;;;;5117354;28;20440;-72
2022/02/09 22:57:42;;;;;;;16.10;8.67;;;;;;;;;;5117117;28;20806;-72
2022/02/09 23:00:15;;;;;;;11.27;6.73;;;;;;;;;;5116795;28;20461;-72
2022/02/09 23:02:53;;;;;;;15.70;6.30;;;;;;;;;;5116841;28;20546;-71
2022/02/09 23:05:41;;;;;;;13.90;7.87;;;;;;;;;;5115490;28;20483;-71
2022/02/09 23:08:35;;;;;;;12.13;7.10;;;;;;;;;;5116068;28;20485;-72
2022/02/09 23:11:22;;;;;;;10.17;6.20;;;;;;;;;;5115932;28;20462;-71
2022/02/09 23:13:52;;;;;;;14.30;7.40;;;;;;;;;;5117270;28;20528;-72
2022/02/09 23:16:25;;;;;;;13.73;7.53;;;;;;;;;;5115207;28;20532;-72
2022/02/09 23:24:51;;;;;;;18.93;9.43;;;;;;;;;;5118693;28;20539;-72
2022/02/09 23:28:23;;;;;;;17.63;10.47;;;;;;;;;;5119480;28;20495;-72
2022/02/09 23:53:22;;;;;;;14.13;9.37;;;;;;;;;;5099022;28;20459;-73
